createdAt,value
2019-02-16T00:02:11.872Z,26.83
2019-02-16T00:04:42.353Z,26.90
2019-02-16T00:07:12.857Z,29.97
2019-02-16T00:09:43.402Z,33.53
2019-02-16T00:12:13.909Z,31.80
2019-02-16T00:14:44.410Z,32.20
2019-02-16T00:17:16.805Z,34.57
2019-02-16T00:19:47.268Z,33.30
2019-02-16T00:22:18.343Z,36.03
2019-02-16T00:24:48.810Z,34.93
2019-02-16T00:27:19.316Z,35.57
2019-02-16T00:29:49.832Z,32.30
2019-02-16T00:32:20.292Z,34.33
2019-02-16T00:34:50.804Z,33.90
2019-02-16T00:37:21.365Z,33.13
2019-02-16T00:39:51.880Z,32.03
2019-02-16T00:42:22.440Z,32.23
2019-02-16T00:44:52.947Z,32.13
2019-02-16T00:47:23.486Z,35.40
2019-02-16T00:49:54.095Z,34.87
2019-02-16T00:52:24.618Z,34.30
2019-02-16T00:54:55.127Z,33.13
2019-02-16T00:57:25.627Z,28.87
2019-02-16T00:59:56.118Z,31.30
2019-02-16T01:02:27.377Z,28.00
2019-02-16T01:04:57.861Z,28.37
2019-02-16T01:07:28.360Z,27.50
2019-02-16T01:09:58.939Z,29.63
2019-02-16T01:12:29.442Z,28.17
2019-02-16T01:14:59.910Z,25.03
2019-02-16T01:17:30.468Z,24.70
2019-02-16T01:20:01.886Z,25.10
2019-02-16T01:22:32.445Z,24.30
2019-02-16T01:25:02.933Z,25.63
2019-02-16T01:27:34.223Z,23.90
2019-02-16T01:30:25.557Z,22.40
2019-02-16T01:32:56.054Z,19.60
2019-02-16T01:35:26.562Z,22.97
2019-02-16T01:37:57.025Z,21.43
2019-02-16T01:40:27.544Z,23.27
2019-02-16T01:42:58.107Z,19.60
2019-02-16T01:45:28.623Z,20.30
2019-02-16T01:47:59.093Z,20.73
2019-02-16T01:50:29.597Z,20.13
2019-02-16T01:53:00.112Z,20.33
2019-02-16T01:55:30.640Z,20.27
2019-02-16T01:58:01.172Z,21.50
2019-02-16T02:00:31.797Z,20.03
2019-02-16T02:03:02.384Z,21.50
2019-02-16T02:05:32.856Z,19.83
2019-02-16T02:08:04.629Z,17.30
2019-02-16T02:10:35.110Z,17.03
2019-02-16T02:13:05.699Z,19.23
2019-02-16T02:15:36.171Z,17.17
2019-02-16T02:18:06.767Z,18.10
2019-02-16T02:20:37.231Z,19.33
2019-02-16T02:23:07.749Z,19.40
2019-02-16T02:25:38.261Z,20.00
2019-02-16T02:28:08.806Z,18.63
2019-02-16T02:30:39.330Z,18.40
2019-02-16T02:33:09.800Z,20.13
2019-02-16T02:35:40.300Z,18.40
2019-02-16T02:38:10.784Z,20.70
2019-02-16T02:40:41.371Z,20.00
2019-02-16T02:43:11.920Z,19.57
2019-02-16T02:45:42.442Z,20.13
2019-02-16T02:48:12.907Z,17.50
2019-02-16T02:50:43.432Z,20.43
2019-02-16T02:53:13.914Z,20.30
2019-02-16T02:55:44.437Z,18.07
2019-02-16T02:58:14.934Z,19.00
2019-02-16T03:00:45.414Z,19.50
2019-02-16T03:03:16.851Z,19.30
2019-02-16T03:05:47.315Z,19.60
2019-02-16T03:08:17.814Z,20.20
2019-02-16T03:10:48.295Z,18.97
2019-02-16T03:13:18.806Z,19.63
2019-02-16T03:15:49.283Z,19.47
2019-02-16T03:18:21.353Z,20.10
2019-02-16T03:20:51.819Z,19.30
2019-02-16T03:23:22.393Z,17.77
2019-02-16T03:26:14.794Z,19.60
2019-02-16T03:28:52.740Z,18.20
2019-02-16T03:32:02.291Z,18.87
2019-02-16T03:34:52.096Z,17.70
2019-02-16T03:38:16.074Z,19.07
2019-02-16T03:40:49.691Z,18.80
2019-02-16T03:43:20.272Z,20.63
2019-02-16T03:45:50.761Z,17.83
2019-02-16T03:48:21.263Z,18.00
2019-02-16T03:50:51.788Z,18.17
2019-02-16T03:53:22.259Z,18.87
2019-02-16T03:55:52.759Z,19.30
2019-02-16T03:58:23.247Z,17.10
2019-02-16T04:00:53.746Z,17.93
2019-02-16T04:03:24.217Z,19.00
2019-02-16T04:05:54.737Z,18.87
2019-02-16T04:08:26.333Z,19.07
2019-02-16T04:10:56.839Z,18.33
2019-02-16T04:13:27.328Z,18.20
2019-02-16T04:15:58.519Z,17.13
2019-02-16T04:18:30.359Z,18.40
2019-02-16T04:21:00.973Z,17.77
2019-02-16T04:23:31.470Z,17.27
2019-02-16T04:26:03.643Z,17.47
2019-02-16T04:28:36.244Z,17.00
2019-02-16T04:31:06.752Z,17.07
2019-02-16T04:33:37.274Z,16.50
2019-02-16T04:36:07.740Z,17.27
2019-02-16T04:38:38.237Z,18.43
2019-02-16T04:41:08.849Z,19.40
2019-02-16T04:43:39.422Z,18.33
2019-02-16T04:46:09.896Z,16.43
2019-02-16T04:48:40.395Z,16.97
2019-02-16T04:51:10.923Z,18.20
2019-02-16T04:53:41.436Z,19.10
2019-02-16T04:56:14.042Z,17.67
2019-02-16T04:58:45.184Z,16.47
2019-02-16T05:01:15.823Z,16.37
2019-02-16T05:03:46.355Z,17.30
2019-02-16T05:06:16.857Z,16.17
2019-02-16T05:08:47.338Z,16.13
2019-02-16T05:11:17.861Z,15.10
2019-02-16T05:13:48.371Z,15.37
2019-02-16T05:16:18.862Z,15.77
2019-02-16T05:18:49.360Z,14.87
2019-02-16T05:21:21.854Z,18.30
2019-02-16T05:23:52.365Z,17.00
2019-02-16T05:26:22.838Z,16.70
2019-02-16T05:28:53.394Z,17.43
2019-02-16T05:31:23.865Z,15.40
2019-02-16T05:33:54.397Z,15.97
2019-02-16T05:36:24.865Z,16.13
2019-02-16T05:38:55.445Z,15.60
2019-02-16T05:41:25.944Z,16.10
2019-02-16T05:43:56.452Z,15.63
2019-02-16T05:46:26.920Z,15.40
2019-02-16T05:48:58.281Z,15.60
2019-02-16T05:51:28.757Z,14.33
2019-02-16T05:53:59.260Z,14.73
2019-02-16T05:56:29.837Z,15.30
2019-02-16T05:59:00.403Z,14.40
2019-02-16T06:01:31.492Z,14.37
2019-02-16T06:04:01.960Z,15.97
2019-02-16T06:06:32.479Z,16.17
2019-02-16T06:09:04.735Z,14.90
2019-02-16T06:11:35.332Z,15.23
2019-02-16T06:14:06.842Z,16.67
2019-02-16T06:16:37.421Z,15.47
2019-02-16T06:19:07.940Z,16.33
2019-02-16T06:21:40.013Z,14.67
2019-02-16T06:24:10.552Z,16.10
2019-02-16T06:26:41.030Z,17.70
2019-02-16T06:29:11.525Z,16.87
2019-02-16T06:31:42.083Z,16.60
2019-02-16T06:34:12.583Z,15.77
2019-02-16T06:36:43.052Z,15.63
2019-02-16T06:39:13.561Z,15.47
2019-02-16T06:41:44.029Z,18.07
2019-02-16T06:44:14.528Z,18.13
2019-02-16T06:46:45.032Z,18.73
2019-02-16T06:49:15.550Z,18.00
2019-02-16T06:51:46.030Z,18.90
2019-02-16T06:54:16.539Z,17.87
2019-02-16T06:57:00.358Z,18.60
2019-02-16T06:59:30.884Z,18.63
2019-02-16T07:02:01.482Z,17.97
2019-02-16T07:04:32.165Z,19.00
2019-02-16T07:07:02.641Z,19.50
2019-02-16T07:09:33.140Z,20.47
2019-02-16T07:12:04.894Z,20.70
2019-02-16T07:14:35.356Z,19.53
2019-02-16T07:17:15.039Z,22.00
2019-02-16T07:19:47.132Z,20.53
2019-02-16T07:22:18.681Z,22.83
2019-02-16T07:24:49.224Z,20.97
2019-02-16T07:27:19.742Z,23.27
2019-02-16T07:29:52.127Z,22.63
2019-02-16T07:32:23.755Z,21.50
2019-02-16T07:34:54.236Z,18.70
2019-02-16T07:37:24.746Z,18.40
2019-02-16T07:39:55.197Z,18.57
2019-02-16T07:42:26.273Z,16.50
2019-02-16T07:44:58.421Z,17.00
2019-02-16T07:47:30.517Z,18.50
2019-02-16T07:50:08.611Z,19.70
2019-02-16T07:52:52.696Z,18.70
2019-02-16T07:55:30.598Z,17.83
2019-02-16T07:58:08.577Z,21.67
2019-02-16T08:00:40.713Z,23.00
2019-02-16T08:03:15.513Z,21.43
2019-02-16T08:05:47.639Z,21.40
2019-02-16T08:08:19.796Z,21.90
2019-02-16T08:11:08.411Z,22.10
2019-02-16T08:13:40.504Z,22.53
2019-02-16T08:16:15.416Z,20.13
2019-02-16T08:18:50.277Z,20.90
2019-02-16T08:21:24.899Z,19.83
2019-02-16T08:24:00.932Z,17.80
2019-02-16T08:26:33.657Z,14.40
2019-02-16T08:29:05.762Z,14.53
2019-02-16T08:31:37.911Z,15.27
2019-02-16T08:34:10.018Z,16.17
2019-02-16T08:36:42.199Z,16.03
2019-02-16T08:39:17.381Z,15.87
2019-02-16T08:42:05.871Z,15.07
2019-02-16T08:44:55.878Z,14.30
2019-02-16T08:47:30.683Z,15.13
2019-02-16T08:50:00.946Z,13.17
2019-02-16T08:52:33.064Z,15.40
2019-02-16T08:55:20.926Z,15.20
2019-02-16T08:57:57.867Z,19.50
2019-02-16T09:00:35.711Z,23.00
2019-02-16T09:03:08.693Z,13.03
2019-02-16T09:05:40.863Z,12.73
2019-02-16T09:08:18.767Z,13.90
2019-02-16T09:10:51.413Z,12.17
2019-02-16T09:13:39.174Z,13.20
2019-02-16T09:16:17.458Z,12.73
2019-02-16T09:18:49.630Z,13.20
2019-02-16T09:21:31.365Z,12.80
2019-02-16T09:24:09.468Z,12.70
2019-02-16T09:26:50.433Z,13.60
2019-02-16T09:29:25.219Z,15.03
2019-02-16T09:32:13.661Z,11.90
2019-02-16T09:34:51.389Z,11.20
2019-02-16T09:37:29.336Z,10.20
2019-02-16T09:40:17.569Z,10.00
2019-02-16T09:42:52.025Z,11.40
2019-02-16T09:45:36.844Z,10.57
2019-02-16T09:48:12.632Z,14.93
2019-02-16T09:50:47.718Z,11.17
2019-02-16T09:53:32.067Z,15.70
2019-02-16T09:56:09.595Z,15.77
2019-02-16T09:58:43.253Z,13.03
2019-02-16T10:01:21.289Z,12.23
2019-02-16T10:04:02.452Z,12.47
2019-02-16T10:06:50.883Z,13.37
2019-02-16T10:09:29.058Z,18.27
2019-02-16T10:11:59.297Z,19.30
2019-02-16T10:14:44.328Z,19.67
2019-02-16T10:17:14.622Z,16.67
2019-02-16T10:19:49.814Z,16.37
2019-02-16T10:22:24.835Z,15.20
2019-02-16T10:24:56.937Z,14.20
2019-02-16T10:27:45.022Z,13.30
2019-02-16T10:30:18.041Z,14.30
2019-02-16T10:32:50.330Z,14.43
2019-02-16T10:35:22.791Z,14.43
2019-02-16T10:38:13.304Z,14.40
2019-02-16T10:40:46.263Z,13.50
2019-02-16T10:43:20.960Z,13.23
2019-02-16T10:46:09.056Z,12.20
2019-02-16T10:48:41.179Z,10.23
2019-02-16T10:51:13.293Z,10.17
2019-02-16T10:53:48.161Z,12.10
2019-02-16T10:56:18.453Z,11.50
2019-02-16T10:58:50.576Z,12.60
2019-02-16T11:01:22.744Z,15.83
2019-02-16T11:03:57.813Z,16.00
2019-02-16T11:06:31.263Z,16.57
2019-02-16T11:09:09.468Z,13.40
2019-02-16T11:12:01.949Z,12.27
2019-02-16T11:14:34.093Z,13.40
2019-02-16T11:17:04.438Z,14.90
2019-02-16T11:19:40.799Z,16.90
2019-02-16T11:22:12.915Z,16.80
2019-02-16T11:24:47.900Z,20.23
2019-02-16T11:27:36.182Z,22.10
2019-02-16T11:30:11.558Z,21.17
2019-02-16T11:32:43.705Z,23.00
2019-02-16T11:35:18.856Z,21.93
2019-02-16T11:37:55.017Z,21.30
2019-02-16T11:40:29.309Z,20.60
2019-02-16T11:43:01.456Z,20.80
2019-02-16T11:45:37.000Z,20.47
2019-02-16T11:48:09.256Z,19.50
2019-02-16T11:50:47.192Z,21.13
2019-02-16T11:53:35.461Z,20.73
2019-02-16T11:56:19.397Z,19.53
2019-02-16T11:59:08.309Z,20.53
2019-02-16T12:01:56.749Z,17.50
2019-02-16T12:04:34.816Z,17.77
2019-02-16T12:07:06.656Z,22.53
2019-02-16T12:09:38.755Z,17.77
2019-02-16T12:12:09.038Z,17.40
2019-02-16T12:14:43.069Z,17.00
2019-02-16T12:17:15.206Z,15.03
2019-02-16T12:19:56.232Z,16.30
2019-02-16T12:22:37.230Z,14.50
2019-02-16T12:25:15.253Z,14.50
2019-02-16T12:28:03.655Z,14.03
2019-02-16T12:30:53.891Z,14.20
2019-02-16T12:33:29.030Z,12.80
2019-02-16T12:36:02.229Z,17.07
2019-02-16T12:38:43.681Z,15.30
2019-02-16T12:41:18.283Z,12.33
2019-02-16T12:44:06.542Z,12.73
2019-02-16T12:46:41.782Z,10.47
2019-02-16T12:49:12.062Z,9.70
2019-02-16T12:51:46.851Z,10.50
2019-02-16T12:54:19.012Z,11.33
2019-02-16T12:56:53.974Z,10.87
2019-02-16T12:59:26.128Z,16.60
2019-02-16T13:01:58.246Z,11.70
2019-02-16T13:04:32.168Z,10.43
2019-02-16T13:07:16.429Z,8.50
2019-02-16T13:09:51.705Z,10.40
2019-02-16T13:12:25.064Z,10.33
2019-02-16T13:15:07.261Z,10.37
2019-02-16T13:17:45.911Z,11.97
2019-02-16T13:20:19.157Z,12.87
2019-02-16T13:22:51.291Z,13.23
2019-02-16T13:25:41.794Z,14.00
2019-02-16T13:28:13.930Z,12.87
2019-02-16T13:31:04.176Z,12.27
2019-02-16T13:33:51.497Z,13.57
2019-02-16T13:36:38.480Z,14.50
2019-02-16T13:39:16.503Z,14.50
2019-02-16T13:41:57.906Z,14.67
2019-02-16T13:44:39.073Z,13.03
2019-02-16T13:47:19.943Z,13.90
2019-02-16T13:49:57.744Z,15.37
2019-02-16T13:52:28.003Z,13.73
2019-02-16T13:55:05.667Z,14.50
2019-02-16T13:57:47.053Z,13.03
2019-02-16T14:00:19.828Z,14.33
2019-02-16T14:02:54.943Z,13.03
2019-02-16T14:05:27.073Z,13.60
2019-02-16T14:08:00.973Z,12.50
2019-02-16T14:10:38.837Z,13.57
2019-02-16T14:13:11.845Z,17.20
2019-02-16T14:15:47.463Z,15.50
2019-02-16T14:18:17.945Z,13.73
2019-02-16T14:20:48.450Z,24.73
2019-02-16T14:23:18.923Z,16.27
2019-02-16T14:25:49.570Z,15.40
2019-02-16T14:28:20.042Z,23.57
2019-02-16T14:30:50.559Z,18.20
2019-02-16T14:33:21.040Z,16.30
2019-02-16T14:35:51.554Z,17.10
2019-02-16T14:38:32.321Z,17.30
2019-02-16T14:41:04.368Z,16.53
2019-02-16T14:43:34.866Z,16.20
2019-02-16T14:46:05.328Z,15.60
2019-02-16T14:48:35.848Z,17.67
2019-02-16T14:51:06.321Z,16.63
2019-02-16T14:53:36.852Z,13.73
2019-02-16T14:56:07.402Z,20.07
2019-02-16T14:58:37.925Z,68.53
2019-02-16T15:01:08.394Z,17.80
2019-02-16T15:03:38.895Z,14.50
2019-02-16T15:06:09.376Z,14.20
2019-02-16T15:08:40.603Z,14.37
2019-02-16T15:11:11.118Z,14.63
2019-02-16T15:13:56.087Z,14.73
2019-02-16T15:16:26.649Z,15.00
2019-02-16T15:18:57.118Z,15.83
2019-02-16T15:21:27.645Z,17.33
2019-02-16T15:23:58.283Z,19.03
2019-02-16T15:26:29.025Z,18.00
2019-02-16T15:28:59.561Z,20.53
2019-02-16T15:31:30.052Z,21.40
2019-02-16T15:34:00.558Z,31.40
2019-02-16T15:36:32.199Z,30.57
2019-02-16T15:39:02.776Z,35.60
2019-02-16T15:41:33.328Z,41.20
2019-02-16T15:44:03.826Z,42.93
2019-02-16T15:46:34.363Z,58.60
2019-02-16T15:49:07.188Z,66.70
2019-02-16T15:51:37.675Z,46.03
2019-02-16T15:54:08.139Z,42.27
2019-02-16T15:56:38.650Z,42.77
2019-02-16T15:59:09.698Z,42.90
2019-02-16T16:01:40.410Z,39.60
2019-02-16T16:04:10.945Z,41.17
2019-02-16T16:06:41.396Z,41.10
2019-02-16T16:09:15.165Z,39.57
2019-02-16T16:11:47.281Z,40.77
2019-02-16T16:14:19.422Z,37.47
2019-02-16T16:16:57.303Z,32.57
2019-02-16T16:19:29.405Z,31.80
2019-02-16T16:22:10.625Z,32.73
2019-02-16T16:24:42.794Z,27.00
2019-02-16T16:27:20.698Z,25.27
2019-02-16T16:29:58.824Z,39.43
2019-02-16T16:32:29.134Z,57.60
2019-02-16T16:35:13.381Z,28.33
2019-02-16T16:37:47.931Z,23.83
2019-02-16T16:40:25.830Z,23.60
2019-02-16T16:42:59.433Z,22.07
2019-02-16T16:45:48.029Z,22.07
2019-02-16T16:48:24.093Z,21.57
2019-02-16T16:50:56.304Z,21.10
2019-02-16T16:53:30.875Z,21.43
2019-02-16T16:56:14.976Z,20.10
2019-02-16T16:58:49.605Z,21.30
2019-02-16T17:01:37.842Z,19.47
2019-02-16T17:04:14.821Z,19.40
2019-02-16T17:07:02.017Z,19.97
2019-02-16T17:09:44.687Z,19.20
2019-02-16T17:12:34.604Z,19.17
2019-02-16T17:15:02.256Z,19.27
2019-02-16T17:17:37.111Z,20.50
2019-02-16T17:20:18.142Z,19.93
2019-02-16T17:22:48.372Z,21.20
2019-02-16T17:25:22.027Z,20.97
2019-02-16T17:27:55.350Z,22.50
2019-02-16T17:30:30.440Z,21.90
2019-02-16T17:33:14.707Z,21.20
2019-02-16T17:36:01.886Z,21.60
2019-02-16T17:38:35.126Z,22.93
2019-02-16T17:41:25.389Z,23.17
2019-02-16T17:44:14.222Z,22.87
2019-02-16T17:46:44.488Z,23.10
2019-02-16T17:49:17.334Z,26.27
2019-02-16T17:54:36.386Z,25.93
2019-02-16T17:57:10.992Z,22.67
2019-02-16T17:59:43.110Z,21.70
2019-02-16T18:02:31.236Z,21.70
2019-02-16T18:05:07.406Z,23.07
2019-02-16T18:07:39.549Z,21.73
2019-02-16T18:10:11.738Z,24.57
2019-02-16T18:12:43.869Z,24.13
2019-02-16T18:15:33.377Z,22.80
2019-02-16T18:18:14.142Z,22.67
2019-02-16T18:20:52.321Z,23.10
2019-02-16T18:23:30.200Z,22.93
2019-02-16T18:26:08.041Z,22.33
2019-02-16T18:28:57.773Z,22.37
2019-02-16T18:31:48.196Z,20.77
2019-02-16T18:34:20.068Z,19.70
2019-02-16T18:36:52.233Z,18.43
2019-02-16T18:39:32.011Z,19.97
2019-02-16T18:42:04.195Z,19.60
2019-02-16T18:44:52.625Z,24.87
2019-02-16T18:47:24.772Z,60.77
2019-02-16T18:50:10.059Z,24.50
2019-02-16T18:52:42.222Z,21.93
2019-02-16T18:55:14.345Z,21.53
2019-02-16T18:57:58.536Z,22.27
2019-02-16T19:00:30.798Z,23.77
2019-02-16T19:03:04.331Z,23.70
2019-02-16T19:05:40.358Z,22.23
2019-02-16T19:08:21.255Z,19.97
2019-02-16T19:11:02.590Z,22.40
2019-02-16T19:13:40.751Z,24.63
2019-02-16T19:16:24.875Z,23.70
2019-02-16T19:18:57.004Z,23.97
2019-02-16T19:21:29.143Z,28.20
2019-02-16T19:24:02.154Z,22.80
2019-02-16T19:26:53.039Z,22.50
2019-02-16T19:29:25.189Z,20.80
2019-02-16T19:32:06.120Z,22.20
2019-02-16T19:34:44.102Z,20.87
2019-02-16T19:37:22.120Z,23.30
2019-02-16T19:39:56.967Z,26.70
2019-02-16T19:42:31.987Z,32.70
2019-02-16T19:45:02.912Z,24.50
2019-02-16T19:47:41.696Z,23.27
2019-02-16T19:50:16.507Z,19.77
2019-02-16T19:53:01.005Z,23.30
2019-02-16T19:55:45.219Z,22.20
2019-02-16T19:58:23.121Z,24.77
2019-02-16T20:00:57.996Z,24.40
2019-02-16T20:03:30.097Z,23.13
2019-02-16T20:06:17.382Z,22.90
2019-02-16T20:08:52.346Z,23.00
2019-02-16T20:11:42.830Z,23.50
2019-02-16T20:14:23.868Z,22.10
2019-02-16T20:17:08.037Z,21.00
2019-02-16T20:19:49.058Z,22.43
2019-02-16T20:22:27.411Z,22.43
2019-02-16T20:25:08.322Z,23.83
2019-02-16T20:27:40.774Z,22.13
2019-02-16T20:30:21.668Z,21.27
2019-02-16T20:32:53.806Z,22.70
2019-02-16T20:35:41.963Z,23.00
2019-02-16T20:38:32.136Z,20.90
2019-02-16T20:41:09.446Z,22.57
2019-02-16T20:43:45.743Z,21.63
2019-02-16T20:46:24.252Z,20.30
2019-02-16T20:48:54.474Z,20.83
2019-02-16T20:51:26.708Z,21.53
2019-02-16T20:54:04.602Z,22.13
2019-02-16T20:56:40.946Z,22.47
2019-02-16T20:59:29.545Z,21.33
2019-02-16T21:02:07.668Z,22.23
2019-02-16T21:04:39.878Z,19.57
2019-02-16T21:07:27.002Z,20.00
2019-02-16T21:10:05.094Z,21.67
2019-02-16T21:12:53.866Z,21.83
2019-02-16T21:15:28.914Z,21.53
2019-02-16T21:18:04.516Z,21.67
2019-02-16T21:20:55.104Z,23.20
2019-02-16T21:23:29.897Z,22.33
2019-02-16T21:26:02.051Z,23.17
2019-02-16T21:28:34.172Z,20.87
2019-02-16T21:31:22.957Z,21.90
2019-02-16T21:33:55.153Z,20.47
2019-02-16T21:36:30.105Z,20.80
2019-02-16T21:39:03.571Z,22.63
2019-02-16T21:41:48.003Z,21.27
2019-02-16T21:44:22.928Z,22.13
2019-02-16T21:46:57.811Z,19.53
2019-02-16T21:49:45.886Z,23.47
2019-02-16T21:52:21.123Z,21.30
2019-02-16T21:55:02.295Z,19.90
2019-02-16T21:57:49.763Z,21.87
2019-02-16T22:00:21.858Z,21.70
2019-02-16T22:02:54.071Z,21.60
2019-02-16T22:05:27.154Z,21.67
2019-02-16T22:08:02.365Z,22.30
2019-02-16T22:10:40.201Z,21.93
2019-02-16T22:13:10.662Z,22.07
2019-02-16T22:15:42.773Z,21.17
2019-02-16T22:18:13.216Z,21.70
2019-02-16T22:20:46.904Z,21.13
2019-02-16T22:23:19.997Z,23.43
2019-02-16T22:25:50.501Z,21.90
2019-02-16T22:28:30.449Z,22.23
2019-02-16T22:30:54.800Z,22.23
2019-02-16T22:33:26.291Z,23.10
2019-02-16T22:35:56.856Z,24.30
2019-02-16T22:38:27.319Z,25.90
2019-02-16T22:40:57.804Z,24.87
2019-02-16T22:43:28.288Z,23.63
2019-02-16T22:45:58.776Z,26.47
2019-02-16T22:48:30.850Z,24.17
2019-02-16T22:51:01.349Z,26.03
2019-02-16T22:53:31.879Z,25.97
2019-02-16T22:56:03.067Z,26.93
2019-02-16T22:58:33.533Z,26.60
2019-02-16T23:01:05.627Z,26.83
2019-02-16T23:03:36.115Z,28.07
2019-02-16T23:06:08.148Z,26.37
2019-02-16T23:08:38.776Z,23.47
2019-02-16T23:11:09.234Z,27.80
2019-02-16T23:13:39.770Z,25.90
2019-02-16T23:16:10.239Z,25.00
2019-02-16T23:18:40.732Z,25.50
2019-02-16T23:21:13.863Z,27.10
2019-02-16T23:23:44.365Z,26.33
2019-02-16T23:26:15.835Z,24.17
2019-02-16T23:28:46.313Z,25.47
2019-02-16T23:31:16.807Z,24.13
2019-02-16T23:33:47.269Z,26.13
2019-02-16T23:36:17.764Z,24.33
2019-02-16T23:38:48.328Z,23.50
2019-02-16T23:41:20.547Z,25.23
2019-02-16T23:43:51.031Z,26.23
2019-02-16T23:46:22.096Z,23.80
2019-02-16T23:48:52.590Z,23.13
2019-02-16T23:51:26.275Z,21.70
2019-02-16T23:53:57.672Z,20.80
2019-02-16T23:56:28.333Z,21.67
2019-02-16T23:58:58.809Z,24.20
